createdAt,value
2017-10-03T00:01:40.079Z,91.20
2017-10-03T00:04:08.346Z,91.20
2017-10-03T00:06:36.629Z,90.50
2017-10-03T00:09:05.619Z,91.00
2017-10-03T00:11:33.875Z,90.90
2017-10-03T00:14:02.933Z,91.00
2017-10-03T00:16:31.205Z,90.90
2017-10-03T00:18:59.475Z,90.80
2017-10-03T00:21:27.731Z,90.30
2017-10-03T00:23:56.002Z,90.80
2017-10-03T00:26:24.231Z,91.10
2017-10-03T00:28:52.495Z,90.90
2017-10-03T00:31:20.790Z,90.50
2017-10-03T00:33:49.057Z,90.20
2017-10-03T00:36:17.306Z,90.70
2017-10-03T00:38:45.603Z,91.00
2017-10-03T00:41:13.872Z,91.20
2017-10-03T00:43:42.161Z,91.20
2017-10-03T00:46:10.440Z,91.30
2017-10-03T00:48:38.695Z,91.20
2017-10-03T00:51:07.004Z,91.00
2017-10-03T00:53:35.275Z,90.80
2017-10-03T00:56:03.533Z,90.10
2017-10-03T00:58:31.855Z,90.20
2017-10-03T01:01:00.472Z,89.70
2017-10-03T01:03:28.755Z,90.10
2017-10-03T01:05:57.010Z,90.80
2017-10-03T01:08:25.270Z,90.60
2017-10-03T01:10:53.544Z,90.80
2017-10-03T01:13:32.838Z,91.40
2017-10-03T01:16:01.110Z,91.40
2017-10-03T01:18:29.354Z,90.60
2017-10-03T01:20:57.625Z,91.10
2017-10-03T01:23:25.990Z,91.10
2017-10-03T01:25:55.035Z,91.20
2017-10-03T01:28:23.282Z,91.00
2017-10-03T01:30:52.352Z,90.80
2017-10-03T01:33:20.602Z,90.80
2017-10-03T01:35:48.858Z,90.80
2017-10-03T01:38:17.098Z,91.00
2017-10-03T01:40:46.114Z,91.40
2017-10-03T01:43:15.134Z,91.00
2017-10-03T01:45:43.394Z,91.00
2017-10-03T01:48:11.658Z,90.50
2017-10-03T01:50:40.654Z,90.90
2017-10-03T01:53:09.671Z,90.70
2017-10-03T01:55:37.913Z,90.70
2017-10-03T01:58:06.971Z,90.80
2017-10-03T02:00:35.233Z,90.80
2017-10-03T02:03:03.510Z,90.60
2017-10-03T02:05:31.758Z,90.40
2017-10-03T02:08:00.778Z,91.10
2017-10-03T02:10:29.007Z,91.10
2017-10-03T02:12:58.041Z,91.40
2017-10-03T02:15:26.285Z,91.40
2017-10-03T02:17:55.304Z,90.70
2017-10-03T02:20:23.569Z,90.60
2017-10-03T02:22:52.584Z,91.10
2017-10-03T02:25:20.836Z,91.00
2017-10-03T02:27:50.573Z,91.20
2017-10-03T02:30:18.818Z,91.20
2017-10-03T02:32:48.022Z,91.40
2017-10-03T02:35:17.621Z,91.40
2017-10-03T02:37:46.623Z,91.40
2017-10-03T02:40:15.645Z,91.50
2017-10-03T02:42:43.893Z,91.50
2017-10-03T02:45:12.170Z,91.30
2017-10-03T02:47:41.199Z,91.50
2017-10-03T02:50:09.474Z,91.50
2017-10-03T02:52:37.708Z,91.60
2017-10-03T02:55:06.726Z,91.40
2017-10-03T02:57:34.968Z,91.40
2017-10-03T03:00:03.198Z,91.00
2017-10-03T03:02:31.490Z,90.90
2017-10-03T03:04:59.738Z,90.80
2017-10-03T03:07:28.017Z,90.90
2017-10-03T03:09:56.273Z,91.00
2017-10-03T03:12:25.296Z,91.30
2017-10-03T03:14:53.554Z,91.30
2017-10-03T03:17:22.605Z,91.00
2017-10-03T03:19:50.834Z,91.00
2017-10-03T03:22:19.097Z,91.00
2017-10-03T03:24:48.108Z,91.50
2017-10-03T03:27:16.376Z,91.50
2017-10-03T03:29:45.382Z,91.20
2017-10-03T03:32:13.646Z,91.20
2017-10-03T03:34:41.898Z,91.00
2017-10-03T03:37:10.165Z,91.10
2017-10-03T03:39:38.412Z,91.20
2017-10-03T03:42:06.645Z,91.30
2017-10-03T03:44:35.684Z,90.90
2017-10-03T03:47:03.921Z,90.90
2017-10-03T03:49:32.929Z,90.70
2017-10-03T03:52:01.179Z,90.70
2017-10-03T03:54:30.188Z,90.80
2017-10-03T03:56:59.193Z,90.60
2017-10-03T03:59:27.483Z,90.60
2017-10-03T04:01:55.745Z,90.70
2017-10-03T04:04:24.753Z,91.10
2017-10-03T04:06:52.996Z,91.10
2017-10-03T04:09:21.275Z,91.00
2017-10-03T04:11:49.854Z,91.00
2017-10-03T04:14:18.098Z,90.80
2017-10-03T04:16:46.354Z,91.10
2017-10-03T04:19:14.595Z,90.90
2017-10-03T04:21:43.642Z,91.40
2017-10-03T04:24:11.964Z,91.40
2017-10-03T04:26:40.201Z,91.30
2017-10-03T04:29:08.474Z,91.40
2017-10-03T04:31:36.759Z,91.40
2017-10-03T04:34:05.051Z,91.50
2017-10-03T04:36:33.299Z,91.60
2017-10-03T04:39:01.530Z,91.90
2017-10-03T04:41:29.841Z,91.70
2017-10-03T04:43:58.083Z,91.70
2017-10-03T04:46:27.114Z,91.70
2017-10-03T04:48:55.354Z,91.70
2017-10-03T04:51:24.374Z,91.40
2017-10-03T04:53:52.635Z,91.40
2017-10-03T04:56:21.654Z,91.40
2017-10-03T04:58:49.915Z,91.30
2017-10-03T05:01:18.183Z,91.50
2017-10-03T05:03:47.210Z,91.50
2017-10-03T05:06:15.486Z,91.50
2017-10-03T05:08:43.750Z,91.40
2017-10-03T05:11:11.990Z,91.80
2017-10-03T05:13:41.036Z,92.00
2017-10-03T05:16:09.396Z,91.70
2017-10-03T05:18:37.675Z,91.70
2017-10-03T05:21:06.006Z,91.00
2017-10-03T05:23:34.286Z,91.30
2017-10-03T05:26:02.544Z,91.40
2017-10-03T05:28:30.798Z,91.40
2017-10-03T05:30:59.050Z,92.00
2017-10-03T05:33:27.332Z,91.80
2017-10-03T05:35:55.610Z,91.50
2017-10-03T05:38:23.880Z,91.60
2017-10-03T05:40:52.906Z,91.20
2017-10-03T05:43:21.201Z,91.30
2017-10-03T05:45:49.477Z,91.70
2017-10-03T05:48:17.754Z,91.70
2017-10-03T05:50:46.042Z,91.50
2017-10-03T05:53:14.319Z,91.40
2017-10-03T05:55:42.591Z,91.30
2017-10-03T05:58:10.886Z,91.50
2017-10-03T06:00:39.107Z,91.20
2017-10-03T06:03:07.357Z,91.30
2017-10-03T06:05:36.437Z,91.10
2017-10-03T06:08:04.645Z,91.10
2017-10-03T06:10:32.917Z,91.20
2017-10-03T06:13:02.013Z,91.50
2017-10-03T06:15:30.376Z,91.40
2017-10-03T06:17:58.606Z,91.20
2017-10-03T06:20:26.850Z,91.00
2017-10-03T06:22:55.173Z,91.60
2017-10-03T06:25:23.465Z,91.40
2017-10-03T06:27:51.737Z,91.80
2017-10-03T06:30:19.966Z,91.70
2017-10-03T06:32:48.225Z,91.90
2017-10-03T06:35:17.275Z,91.20
2017-10-03T06:37:45.526Z,91.20
2017-10-03T06:40:13.795Z,91.20
2017-10-03T06:42:42.099Z,91.10
2017-10-03T06:45:10.345Z,91.10
2017-10-03T06:47:39.396Z,91.20
2017-10-03T06:50:07.715Z,91.20
2017-10-03T06:52:35.930Z,91.10
2017-10-03T06:55:04.996Z,91.30
2017-10-03T06:57:34.011Z,90.70
2017-10-03T07:00:02.298Z,90.70
2017-10-03T07:02:30.558Z,90.80
2017-10-03T07:04:58.818Z,91.10
2017-10-03T07:07:27.103Z,90.90
2017-10-03T07:09:56.114Z,91.10
2017-10-03T07:12:24.389Z,91.00
2017-10-03T07:14:52.656Z,90.90
2017-10-03T07:17:20.907Z,90.80
2017-10-03T07:19:49.153Z,90.80
2017-10-03T07:22:18.213Z,91.00
2017-10-03T07:24:46.508Z,90.90
2017-10-03T07:27:14.755Z,90.60
2017-10-03T07:29:43.040Z,90.70
2017-10-03T07:32:11.300Z,90.80
2017-10-03T07:34:40.302Z,90.50
2017-10-03T07:37:08.636Z,90.40
2017-10-03T07:39:36.902Z,90.20
2017-10-03T07:42:05.144Z,90.10
2017-10-03T07:44:33.403Z,90.40
2017-10-03T07:47:02.425Z,90.40
2017-10-03T07:49:30.802Z,90.40
2017-10-03T07:51:59.801Z,90.40
2017-10-03T07:54:28.077Z,90.10
2017-10-03T07:56:56.325Z,90.10
2017-10-03T07:59:24.611Z,90.00
2017-10-03T08:01:52.922Z,89.90
2017-10-03T08:04:21.280Z,90.20
2017-10-03T08:06:49.521Z,89.90
2017-10-03T08:09:17.866Z,90.00
2017-10-03T08:11:46.153Z,90.00
2017-10-03T08:14:14.433Z,90.10
2017-10-03T08:16:42.737Z,90.10
2017-10-03T08:19:11.023Z,90.10
2017-10-03T08:21:40.051Z,90.00
2017-10-03T08:24:08.383Z,90.00
2017-10-03T08:26:37.435Z,89.70
2017-10-03T08:29:05.761Z,90.60
2017-10-03T08:31:34.014Z,90.00
2017-10-03T08:34:02.295Z,89.40
2017-10-03T08:36:30.619Z,90.00
2017-10-03T08:38:58.891Z,90.00
2017-10-03T08:41:27.207Z,89.40
2017-10-03T08:43:55.496Z,90.00
2017-10-03T08:46:23.729Z,89.50
2017-10-03T08:48:52.062Z,89.20
2017-10-03T08:51:20.355Z,89.70
2017-10-03T08:53:48.596Z,88.50
2017-10-03T08:56:16.840Z,88.80
2017-10-03T08:58:45.107Z,89.00
2017-10-03T09:01:13.397Z,88.10
2017-10-03T09:03:41.676Z,89.20
2017-10-03T09:06:09.970Z,89.00
2017-10-03T09:08:38.231Z,88.30
2017-10-03T09:11:06.508Z,87.60
2017-10-03T09:13:34.774Z,86.90
2017-10-03T09:16:03.076Z,87.20
2017-10-03T09:18:31.354Z,86.80
2017-10-03T09:20:59.604Z,86.70
2017-10-03T09:23:28.729Z,83.80
2017-10-03T09:25:57.005Z,83.70
2017-10-03T09:28:25.337Z,82.90
2017-10-03T09:30:54.399Z,85.30
2017-10-03T09:33:22.683Z,84.50
2017-10-03T09:35:51.125Z,84.50
2017-10-03T09:38:19.480Z,85.50
2017-10-03T09:40:48.538Z,85.60
2017-10-03T09:43:16.784Z,85.60
2017-10-03T09:45:45.064Z,85.40
2017-10-03T09:48:13.323Z,85.20
2017-10-03T09:50:41.627Z,85.60
2017-10-03T09:53:09.874Z,86.40
2017-10-03T09:55:38.176Z,86.10
2017-10-03T09:58:06.452Z,86.60
2017-10-03T10:00:34.725Z,86.90
2017-10-03T10:03:03.015Z,87.20
2017-10-03T10:05:31.316Z,84.60
2017-10-03T10:07:59.663Z,84.70
2017-10-03T10:10:27.963Z,83.70
2017-10-03T10:12:56.226Z,84.70
2017-10-03T10:15:24.504Z,84.00
2017-10-03T10:17:52.818Z,84.10
2017-10-03T10:20:21.144Z,84.60
2017-10-03T10:22:49.437Z,85.00
2017-10-03T10:25:17.705Z,85.40
2017-10-03T10:27:45.996Z,85.00
2017-10-03T10:30:14.298Z,84.10
2017-10-03T10:32:42.559Z,82.70
2017-10-03T10:35:10.927Z,79.00
2017-10-03T10:37:39.269Z,80.50
2017-10-03T10:40:08.350Z,83.00
2017-10-03T10:42:37.095Z,83.00
2017-10-03T10:45:05.376Z,84.30
2017-10-03T10:47:33.636Z,84.90
2017-10-03T10:50:01.920Z,84.00
2017-10-03T10:52:30.212Z,83.40
2017-10-03T10:54:58.488Z,83.90
2017-10-03T10:57:26.772Z,82.80
2017-10-03T10:59:55.506Z,83.40
2017-10-03T11:02:24.548Z,82.30
2017-10-03T11:04:53.519Z,82.10
2017-10-03T11:07:21.803Z,81.60
2017-10-03T11:09:50.053Z,82.30
2017-10-03T11:12:18.335Z,82.40
2017-10-03T11:14:48.530Z,81.20
2017-10-03T11:17:16.873Z,81.20
2017-10-03T11:19:45.141Z,82.40
2017-10-03T11:22:13.401Z,82.10
2017-10-03T11:24:44.390Z,80.60
2017-10-03T11:27:12.694Z,80.40
2017-10-03T11:29:41.746Z,82.80
2017-10-03T11:32:12.772Z,82.80
2017-10-03T11:34:41.301Z,85.20
2017-10-03T11:37:09.551Z,86.20
2017-10-03T11:39:37.834Z,85.80
2017-10-03T11:42:06.140Z,86.70
2017-10-03T11:44:34.381Z,85.40
2017-10-03T11:47:02.727Z,86.30
2017-10-03T11:49:31.751Z,85.10
2017-10-03T11:52:00.091Z,85.10
2017-10-03T11:54:29.132Z,85.20
2017-10-03T11:56:57.406Z,85.10
2017-10-03T11:59:26.349Z,83.30
2017-10-03T12:01:55.213Z,82.00
2017-10-03T12:04:23.517Z,83.10
2017-10-03T12:06:51.836Z,82.20
2017-10-03T12:09:20.097Z,82.20
2017-10-03T12:11:49.913Z,80.90
2017-10-03T12:14:18.169Z,82.20
2017-10-03T12:16:46.496Z,78.70
2017-10-03T12:19:15.381Z,81.20
2017-10-03T12:21:43.665Z,81.30
2017-10-03T12:24:12.449Z,83.80
2017-10-03T12:26:40.773Z,83.90
2017-10-03T12:29:09.821Z,82.90
2017-10-03T12:31:38.101Z,82.80
2017-10-03T12:34:06.597Z,84.00
2017-10-03T12:36:34.888Z,85.10
2017-10-03T12:39:03.955Z,86.00
2017-10-03T12:41:32.233Z,85.70
2017-10-03T12:44:00.568Z,86.40
2017-10-03T12:46:28.845Z,85.40
2017-10-03T12:48:57.134Z,85.40
2017-10-03T12:51:26.182Z,87.40
2017-10-03T12:53:54.512Z,87.40
2017-10-03T12:56:22.822Z,86.80
2017-10-03T12:58:51.112Z,86.00
2017-10-03T13:01:21.746Z,85.80
2017-10-03T13:03:50.020Z,85.60
2017-10-03T13:06:18.303Z,84.60
2017-10-03T13:08:46.566Z,84.30
2017-10-03T13:11:14.849Z,82.30
2017-10-03T13:13:44.296Z,81.10
2017-10-03T13:16:12.609Z,82.10
2017-10-03T13:18:41.346Z,83.10
2017-10-03T13:21:09.733Z,82.00
2017-10-03T13:23:38.024Z,81.50
2017-10-03T13:26:06.361Z,81.90
2017-10-03T13:28:34.608Z,80.40
2017-10-03T13:31:03.445Z,81.30
2017-10-03T13:33:32.535Z,81.80
2017-10-03T13:36:00.867Z,81.40
2017-10-03T13:38:29.725Z,81.40
2017-10-03T13:40:57.985Z,81.50
2017-10-03T13:43:26.257Z,81.70
2017-10-03T13:45:54.506Z,82.30
2017-10-03T13:48:22.886Z,81.70
2017-10-03T13:50:51.206Z,82.40
2017-10-03T13:53:19.465Z,83.00
2017-10-03T13:55:47.746Z,82.80
2017-10-03T13:58:15.983Z,84.20
2017-10-03T14:00:44.263Z,84.60
2017-10-03T14:03:12.581Z,83.40
2017-10-03T14:05:40.860Z,83.10
2017-10-03T14:08:09.120Z,82.30
2017-10-03T14:10:37.436Z,82.70
2017-10-03T14:13:06.512Z,83.90
2017-10-03T14:15:34.834Z,83.90
2017-10-03T14:18:03.136Z,81.90
2017-10-03T14:20:31.417Z,82.50
2017-10-03T14:22:59.726Z,84.00
2017-10-03T14:25:28.074Z,83.20
2017-10-03T14:27:56.424Z,83.60
2017-10-03T14:30:24.754Z,84.20
2017-10-03T14:32:53.086Z,85.00
2017-10-03T14:35:21.337Z,85.60
2017-10-03T14:37:50.415Z,84.70
2017-10-03T14:40:18.708Z,84.70
2017-10-03T14:42:47.014Z,85.20
2017-10-03T14:45:16.072Z,84.00
2017-10-03T14:47:44.347Z,84.00
2017-10-03T14:50:12.634Z,85.10
2017-10-03T14:52:40.987Z,84.00
2017-10-03T14:55:09.273Z,83.70
2017-10-03T14:57:37.688Z,81.20
2017-10-03T15:00:05.933Z,80.60
2017-10-03T15:02:34.632Z,81.10
2017-10-03T15:05:04.663Z,80.80
2017-10-03T15:07:33.700Z,78.60
2017-10-03T15:10:02.047Z,78.60
2017-10-03T15:12:30.389Z,79.80
2017-10-03T15:14:58.793Z,77.90
2017-10-03T15:17:28.078Z,76.50
2017-10-03T15:19:57.349Z,76.50
2017-10-03T15:22:25.660Z,77.90
2017-10-03T15:24:54.560Z,77.90
2017-10-03T15:27:22.941Z,78.00
2017-10-03T15:29:51.235Z,78.80
2017-10-03T15:32:19.552Z,77.80
2017-10-03T15:34:47.813Z,78.10
2017-10-03T15:37:16.078Z,78.30
2017-10-03T15:39:45.660Z,77.70
2017-10-03T15:42:14.077Z,78.10
2017-10-03T15:44:42.346Z,77.00
2017-10-03T15:47:10.640Z,77.80
2017-10-03T15:49:38.961Z,78.60
2017-10-03T15:52:07.244Z,78.50
2017-10-03T15:54:35.697Z,78.40
2017-10-03T15:57:04.159Z,79.10
2017-10-03T15:59:32.470Z,78.50
2017-10-03T16:02:00.744Z,78.30
2017-10-03T16:04:29.053Z,78.80
2017-10-03T16:06:57.376Z,78.60
2017-10-03T16:09:26.273Z,79.70
2017-10-03T16:11:54.564Z,79.60
2017-10-03T16:14:23.690Z,79.30
2017-10-03T16:16:52.878Z,79.30
2017-10-03T16:19:21.177Z,78.50
2017-10-03T16:21:50.216Z,79.50
2017-10-03T16:24:18.532Z,79.50
2017-10-03T16:26:46.803Z,80.40
2017-10-03T16:29:15.147Z,80.20
2017-10-03T16:31:43.626Z,80.70
2017-10-03T16:34:12.800Z,80.10
2017-10-03T16:36:41.868Z,80.70
2017-10-03T16:39:10.923Z,80.90
2017-10-03T16:41:39.757Z,80.90
2017-10-03T16:44:08.044Z,80.60
2017-10-03T16:46:47.136Z,81.40
2017-10-03T16:49:15.428Z,81.40
2017-10-03T16:51:43.746Z,81.60
2017-10-03T16:54:12.015Z,82.10
2017-10-03T16:56:40.305Z,82.40
2017-10-03T16:59:09.373Z,81.90
2017-10-03T17:01:38.122Z,81.90
2017-10-03T17:04:07.705Z,81.20
2017-10-03T17:06:36.083Z,81.10
2017-10-03T17:09:04.689Z,80.20
2017-10-03T17:11:34.924Z,81.50
2017-10-03T17:14:03.388Z,80.70
2017-10-03T17:16:32.777Z,80.30
2017-10-03T17:19:01.899Z,80.70
2017-10-03T17:21:30.233Z,80.70
2017-10-03T17:23:59.304Z,79.90
2017-10-03T17:26:27.560Z,79.90
2017-10-03T17:28:55.951Z,79.20
2017-10-03T17:31:24.249Z,80.00
2017-10-03T17:33:53.313Z,80.30
2017-10-03T17:36:21.673Z,80.30
2017-10-03T17:38:50.044Z,79.50
2017-10-03T17:41:19.325Z,79.50
2017-10-03T17:43:48.356Z,79.70
2017-10-03T17:46:16.701Z,79.60
2017-10-03T17:48:46.046Z,80.30
2017-10-03T17:51:16.070Z,80.60
2017-10-03T17:53:44.325Z,80.50
2017-10-03T17:56:12.655Z,80.50
2017-10-03T17:58:47.727Z,80.80
2017-10-03T18:01:17.393Z,80.80
2017-10-03T18:03:45.686Z,81.50
2017-10-03T18:06:14.110Z,81.40
2017-10-03T18:08:43.529Z,81.50
2017-10-03T18:11:11.852Z,81.60
2017-10-03T18:13:40.155Z,82.00
2017-10-03T18:16:08.502Z,82.10
2017-10-03T18:18:37.931Z,82.50
2017-10-03T18:21:07.112Z,81.60
2017-10-03T18:23:36.381Z,81.60
2017-10-03T18:26:04.633Z,81.10
2017-10-03T18:28:33.620Z,81.50
2017-10-03T18:31:02.733Z,81.40
2017-10-03T18:33:30.996Z,81.40
2017-10-03T18:36:01.146Z,81.60
2017-10-03T18:38:29.562Z,82.10
2017-10-03T18:40:58.004Z,81.90
2017-10-03T18:43:26.248Z,82.20
2017-10-03T18:45:55.858Z,82.20
2017-10-03T18:48:24.404Z,82.50
2017-10-03T18:50:52.732Z,82.00
2017-10-03T18:53:21.794Z,82.70
2017-10-03T18:55:55.256Z,82.60
2017-10-03T18:58:25.743Z,82.60
2017-10-03T19:00:57.550Z,82.90
2017-10-03T19:03:28.966Z,82.30
2017-10-03T19:05:59.419Z,82.80
2017-10-03T19:08:28.245Z,82.50
2017-10-03T19:10:58.630Z,82.90
2017-10-03T19:13:29.869Z,82.30
2017-10-03T19:15:59.311Z,82.50
2017-10-03T19:18:30.761Z,82.70
2017-10-03T19:21:01.364Z,82.70
2017-10-03T19:23:30.233Z,83.30
2017-10-03T19:25:59.453Z,83.10
2017-10-03T19:28:29.204Z,83.40
2017-10-03T19:30:58.244Z,83.40
2017-10-03T19:33:26.777Z,83.50
2017-10-03T19:35:55.993Z,84.30
2017-10-03T19:38:24.452Z,84.30
2017-10-03T19:40:53.511Z,84.60
2017-10-03T19:43:21.844Z,84.60
2017-10-03T19:45:52.088Z,85.00
2017-10-03T19:48:24.333Z,84.60
2017-10-03T19:50:56.057Z,84.60
2017-10-03T19:53:24.794Z,84.60
2017-10-03T19:55:57.104Z,84.90
2017-10-03T19:58:27.725Z,84.90
2017-10-03T20:00:59.822Z,84.70
2017-10-03T20:03:29.679Z,84.70
2017-10-03T20:05:58.918Z,84.30
2017-10-03T20:08:28.782Z,84.30
2017-10-03T20:10:57.667Z,84.60
2017-10-03T20:13:26.808Z,85.10
2017-10-03T20:15:56.639Z,85.40
2017-10-03T20:18:25.645Z,85.40
2017-10-03T20:20:55.033Z,85.80
2017-10-03T20:23:23.331Z,85.80
2017-10-03T20:25:51.587Z,85.90
2017-10-03T20:28:20.718Z,86.50
2017-10-03T20:30:49.051Z,86.50
2017-10-03T20:33:17.322Z,86.20
2017-10-03T20:35:45.657Z,86.30
2017-10-03T20:38:13.931Z,86.30
2017-10-03T20:40:43.013Z,88.00
2017-10-03T20:43:11.276Z,87.30
2017-10-03T20:45:39.552Z,87.10
2017-10-03T20:48:07.847Z,87.00
2017-10-03T20:50:36.341Z,86.90
2017-10-03T20:53:04.629Z,87.00
2017-10-03T20:55:33.663Z,86.60
2017-10-03T20:58:02.314Z,86.50
2017-10-03T21:00:31.502Z,86.60
2017-10-03T21:02:59.808Z,86.60
2017-10-03T21:05:28.842Z,86.90
2017-10-03T21:07:57.086Z,86.90
2017-10-03T21:10:25.360Z,86.70
2017-10-03T21:12:54.384Z,86.80
2017-10-03T21:15:22.806Z,86.80
2017-10-03T21:17:51.034Z,86.50
2017-10-03T21:20:19.306Z,86.80
2017-10-03T21:22:47.598Z,86.80
2017-10-03T21:25:15.846Z,86.50
2017-10-03T21:27:44.132Z,86.10
2017-10-03T21:30:12.441Z,86.40
2017-10-03T21:32:40.687Z,87.20
2017-10-03T21:35:08.955Z,86.60
2017-10-03T21:37:37.229Z,86.30
2017-10-03T21:40:05.525Z,86.90
2017-10-03T21:42:46.104Z,86.60
2017-10-03T21:45:14.385Z,86.80
2017-10-03T21:47:42.668Z,86.70
2017-10-03T21:50:11.863Z,86.60
2017-10-03T21:52:40.300Z,86.30
2017-10-03T21:55:09.326Z,86.70
2017-10-03T21:57:38.614Z,86.50
2017-10-03T22:00:07.670Z,87.30
2017-10-03T22:02:35.983Z,86.70
2017-10-03T22:05:04.248Z,86.80
2017-10-03T22:07:32.619Z,87.00
2017-10-03T22:10:01.792Z,87.30
2017-10-03T22:12:30.116Z,87.30
2017-10-03T22:14:59.153Z,87.30
2017-10-03T22:17:27.386Z,87.30
2017-10-03T22:19:55.655Z,87.20
2017-10-03T22:22:24.715Z,86.90
2017-10-03T22:24:52.978Z,86.90
2017-10-03T22:27:21.248Z,87.10
2017-10-03T22:29:49.557Z,87.00
2017-10-03T22:32:17.793Z,88.00
2017-10-03T22:34:46.083Z,87.50
2017-10-03T22:37:14.330Z,87.50
2017-10-03T22:39:42.597Z,87.70
2017-10-03T22:42:11.612Z,87.70
2017-10-03T22:44:39.855Z,87.70
2017-10-03T22:47:08.924Z,88.10
2017-10-03T22:49:37.674Z,88.10
2017-10-03T22:52:11.730Z,88.10
2017-10-03T22:54:39.970Z,88.00
2017-10-03T22:57:08.218Z,88.10
2017-10-03T22:59:37.474Z,87.70
2017-10-03T23:02:05.726Z,87.70
2017-10-03T23:04:33.988Z,87.60
2017-10-03T23:07:02.864Z,88.10
2017-10-03T23:09:31.891Z,87.70
2017-10-03T23:12:00.121Z,87.70
2017-10-03T23:14:29.135Z,87.40
2017-10-03T23:16:57.419Z,87.40
2017-10-03T23:19:26.423Z,87.50
2017-10-03T23:21:54.773Z,87.50
2017-10-03T23:24:23.407Z,88.00
2017-10-03T23:26:51.646Z,87.60
2017-10-03T23:29:20.650Z,87.80
2017-10-03T23:31:48.919Z,87.80
2017-10-03T23:34:17.214Z,87.50
2017-10-03T23:36:45.429Z,87.50
2017-10-03T23:39:13.688Z,87.40
2017-10-03T23:41:41.943Z,87.20
2017-10-03T23:44:10.205Z,87.10
2017-10-03T23:46:39.289Z,87.20
2017-10-03T23:49:07.563Z,87.20
2017-10-03T23:51:36.606Z,86.30
2017-10-03T23:54:04.907Z,86.30
2017-10-03T23:56:33.233Z,86.60
2017-10-03T23:59:02.318Z,86.70
